Time;durP1;ratioP1;P1;durP2;ratioP2;P2;SDS_P1;SDS_P2;PMS_P1;PMS_P2;Temp;Humidity;BMP_temperature;BMP_pressure;BME280_temperature;BME280_humidity;BME280_pressure;Samples;Min_cycle;Max_cycle;Signal;HPM_P1;HPM_P2
2024/01/14 00:00:32;;;;;;;;;;;;;;;-0.68;59.23;98797.06;4417902;32;34281;-87
2024/01/14 00:03:00;;;;;;;;;;;;;;;-0.76;59.19;98795.75;4410947;32;34302;-89
2024/01/14 00:05:27;;;;;;;;;;;;;;;-0.85;59.29;98808.91;4419574;32;33500;-87
2024/01/14 00:07:55;;;;;;;;;;;;;;;-0.84;59.27;98799.59;4418236;32;34826;-86
2024/01/14 00:10:22;;;;;;;;;;;;;;;-0.68;58.99;98797.06;4418433;32;33841;-90
2024/01/14 00:12:50;;;;;;;;;;;;;;;-0.60;58.79;98787.25;4405789;32;33930;-92
2024/01/14 00:15:18;;;;;;;;;;;;;;;-0.63;58.74;98793.06;4420421;32;32703;-92
2024/01/14 00:17:46;;;;;;;;;;;;;;;-0.56;58.55;98790.03;4419819;32;34327;-89
2024/01/14 00:20:14;;;;;;;;;;;;;;;-0.86;59.13;98783.38;4399876;32;35157;-87
2024/01/14 00:22:41;;;;;;;;;;;;;;;-1.05;59.54;98779.88;4408348;32;34070;-89
2024/01/14 00:25:09;;;;;;;;;;;;;;;-1.17;59.88;98778.38;4395847;32;32127;-92
2024/01/14 00:27:37;;;;;;;;;;;;;;;-0.81;59.06;98781.94;4421563;32;33373;-88
2024/01/14 00:30:04;;;;;;;;;;;;;;;-0.70;58.61;98780.81;4422008;32;34012;-92
2024/01/14 00:32:32;;;;;;;;;;;;;;;-0.76;58.87;98783.03;4418648;32;34333;-89
2024/01/14 00:34:59;;;;;;;;;;;;;;;-0.71;58.76;98771.44;4407580;32;33278;-91
2024/01/14 00:37:27;;;;;;;;;;;;;;;-0.73;58.94;98770.47;4422275;32;34604;-92
2024/01/14 00:39:55;;;;;;;;;;;;;;;-0.85;59.27;98764.75;4421380;32;33833;-91
2024/01/14 00:42:22;;;;;;;;;;;;;;;-0.89;59.08;98766.28;4421792;32;34180;-90
2024/01/14 00:44:49;;;;;;;;;;;;;;;-0.84;59.55;98761.41;4423252;32;32457;-90
2024/01/14 00:47:17;;;;;;;;;;;;;;;-0.91;60.06;98761.91;4435643;32;34515;-92
2024/01/14 00:49:44;;;;;;;;;;;;;;;-1.15;60.48;98761.50;4436182;32;33955;-91
2024/01/14 00:52:21;;;;;;;;;;;;;;;-0.67;59.55;98754.66;4424697;32;35190;-87
2024/01/14 00:54:48;;;;;;;;;;;;;;;-0.96;60.08;98748.06;4436768;32;33519;-84
2024/01/14 00:57:15;;;;;;;;;;;;;;;-0.94;60.36;98746.50;4421670;32;33985;-86
2024/01/14 00:59:43;;;;;;;;;;;;;;;-1.10;61.27;98744.81;4435355;32;34287;-89
2024/01/14 01:02:10;;;;;;;;;;;;;;;-1.00;61.30;98744.50;4436008;32;34280;-91
2024/01/14 01:04:37;;;;;;;;;;;;;;;-0.86;60.71;98745.22;4436732;32;33493;-91
2024/01/14 01:07:05;;;;;;;;;;;;;;;-0.68;60.26;98745.25;4436698;32;33746;-91
2024/01/14 01:09:35;;;;;;;;;;;;;;;-0.55;59.40;98743.37;4436626;32;34175;-89
2024/01/14 01:12:02;;;;;;;;;;;;;;;-0.55;59.09;98743.37;4436773;32;34815;-86
2024/01/14 01:14:30;;;;;;;;;;;;;;;-0.42;58.63;98731.25;4436747;32;33628;-91
2024/01/14 01:16:57;;;;;;;;;;;;;;;-0.52;58.56;98738.47;4436699;32;34769;-90
2024/01/14 01:19:25;;;;;;;;;;;;;;;-0.50;58.55;98731.75;4436810;32;33794;-89
2024/01/14 01:21:52;;;;;;;;;;;;;;;-0.44;58.20;98718.47;4436663;32;34538;-89
2024/01/14 01:24:19;;;;;;;;;;;;;;;-0.60;58.18;98713.44;4435839;32;33062;-90
2024/01/14 01:26:47;;;;;;;;;;;;;;;-0.52;58.18;98714.66;4436626;32;34040;-91
2024/01/14 01:29:14;;;;;;;;;;;;;;;-0.48;57.98;98719.13;4421946;32;35139;-90
2024/01/14 01:31:42;;;;;;;;;;;;;;;-1.23;59.96;98720.41;4435862;32;34827;-88
2024/01/14 01:34:17;;;;;;;;;;;;;;;-0.85;58.91;98717.28;4436438;32;33744;-91
2024/01/14 01:36:44;;;;;;;;;;;;;;;-0.92;59.11;98699.09;4435319;32;34925;-91
2024/01/14 01:39:13;;;;;;;;;;;;;;;-0.74;58.83;98694.91;4435968;32;34079;-91
2024/01/14 01:41:41;;;;;;;;;;;;;;;-1.58;60.59;98696.56;4421756;32;34482;-87
2024/01/14 01:44:09;;;;;;;;;;;;;;;-1.02;59.68;98683.37;4436731;32;33722;-88
2024/01/14 01:46:36;;;;;;;;;;;;;;;-0.83;59.45;98686.84;4422282;32;34838;-92
2024/01/14 01:49:03;;;;;;;;;;;;;;;-1.38;61.84;98687.44;4436593;32;34871;-91
2024/01/14 01:51:31;;;;;;;;;;;;;;;-0.91;60.70;98685.56;4435245;32;35355;-86
2024/01/14 01:53:59;;;;;;;;;;;;;;;-1.15;60.94;98683.53;4436823;32;33272;-88
2024/01/14 01:56:26;;;;;;;;;;;;;;;-0.70;59.72;98670.50;4436577;32;33113;-90
2024/01/14 01:58:53;;;;;;;;;;;;;;;-1.05;60.35;98675.56;4436287;32;33984;-86
2024/01/14 02:01:21;;;;;;;;;;;;;;;-0.99;60.42;98682.63;4435035;32;33981;-91
2024/01/14 02:03:52;;;;;;;;;;;;;;;-1.43;62.53;98683.81;4436074;32;33092;-90
2024/01/14 02:06:20;;;;;;;;;;;;;;;-1.96;65.67;98681.84;4434691;32;35010;-89
2024/01/14 02:08:47;;;;;;;;;;;;;;;-1.60;65.08;98682.03;4435110;32;35247;-88
2024/01/14 02:11:15;;;;;;;;;;;;;;;-1.70;65.38;98680.69;4434806;32;34352;-84
2024/01/14 02:13:42;;;;;;;;;;;;;;;-1.11;63.59;98682.87;4436423;32;33451;-85
2024/01/14 02:16:09;;;;;;;;;;;;;;;-1.14;63.29;98677.63;4422115;32;34740;-87
2024/01/14 02:18:37;;;;;;;;;;;;;;;-1.78;65.08;98674.31;4436433;32;34266;-91
2024/01/14 02:21:06;;;;;;;;;;;;;;;-1.06;63.14;98670.41;4435264;32;35256;-84
2024/01/14 02:23:34;;;;;;;;;;;;;;;-0.96;62.42;98671.75;4422393;32;34321;-88
2024/01/14 02:26:01;;;;;;;;;;;;;;;-1.01;62.81;98667.31;4421491;32;33891;-89
2024/01/14 02:28:28;;;;;;;;;;;;;;;-0.90;62.53;98670.38;4421845;32;35153;-83
2024/01/14 02:30:56;;;;;;;;;;;;;;;-0.66;61.60;98668.16;4435541;32;34229;-88
2024/01/14 02:33:23;;;;;;;;;;;;;;;-1.24;62.55;98657.66;4444603;32;33600;-89
2024/01/14 02:35:52;;;;;;;;;;;;;;;-1.06;62.03;98656.03;4425710;32;34161;-91
2024/01/14 02:38:19;;;;;;;;;;;;;;;-1.12;62.49;98648.09;4436637;32;34304;-90
2024/01/14 02:40:46;;;;;;;;;;;;;;;-1.18;62.92;98655.41;4435353;32;34785;-91
2024/01/14 02:43:13;;;;;;;;;;;;;;;-1.82;64.45;98658.06;4435653;32;33348;-90
2024/01/14 02:45:41;;;;;;;;;;;;;;;-1.68;65.08;98662.97;4434406;32;34127;-89
2024/01/14 02:48:08;;;;;;;;;;;;;;;-1.23;63.64;98641.59;4426652;32;34223;-91
2024/01/14 02:50:36;;;;;;;;;;;;;;;-1.10;63.08;98655.78;4435342;32;34407;-91
2024/01/14 02:53:03;;;;;;;;;;;;;;;-0.91;62.70;98648.28;4436937;32;33600;-91
2024/01/14 02:55:30;;;;;;;;;;;;;;;-1.19;63.04;98657.88;4435220;32;33690;-91
2024/01/14 02:57:58;;;;;;;;;;;;;;;-1.27;63.41;98649.84;4421136;32;35109;-90
2024/01/14 03:00:26;;;;;;;;;;;;;;;-1.23;63.16;98642.44;4421282;32;34298;-91
2024/01/14 03:02:53;;;;;;;;;;;;;;;-0.87;62.20;98639.09;4421418;32;33406;-91
2024/01/14 03:05:21;;;;;;;;;;;;;;;-1.23;62.39;98639.03;4421087;32;34298;-91
2024/01/14 03:07:48;;;;;;;;;;;;;;;-0.66;61.29;98631.66;4421237;32;34995;-90
2024/01/14 03:10:16;;;;;;;;;;;;;;;-0.69;61.33;98622.19;4425844;32;35112;-91
2024/01/14 03:12:43;;;;;;;;;;;;;;;-0.70;60.84;98635.72;4435394;32;34225;-86
2024/01/14 03:15:11;;;;;;;;;;;;;;;-1.03;62.09;98622.22;4431863;32;34837;-90
2024/01/14 03:17:38;;;;;;;;;;;;;;;-0.56;60.73;98611.81;4432784;32;34236;-91
2024/01/14 03:20:07;;;;;;;;;;;;;;;-0.73;60.76;98610.12;4435181;32;34014;-91
2024/01/14 03:22:34;;;;;;;;;;;;;;;-0.57;60.34;98604.97;4421279;32;32291;-91
2024/01/14 03:25:01;;;;;;;;;;;;;;;-0.50;59.96;98598.47;4435584;32;34114;-87
2024/01/14 03:27:29;;;;;;;;;;;;;;;-0.48;59.83;98601.13;4435674;32;35784;-87
2024/01/14 03:29:56;;;;;;;;;;;;;;;-0.38;59.35;98610.91;4435099;32;34835;-90
2024/01/14 03:32:23;;;;;;;;;;;;;;;-0.27;58.93;98612.28;4435799;32;33290;-86
2024/01/14 03:34:51;;;;;;;;;;;;;;;-0.46;59.27;98607.13;4434583;32;34194;-86
2024/01/14 03:37:18;;;;;;;;;;;;;;;-0.52;59.25;98606.06;4434911;32;34426;-90
2024/01/14 03:39:45;;;;;;;;;;;;;;;-0.83;59.99;98596.09;4435528;32;34706;-89
2024/01/14 03:42:13;;;;;;;;;;;;;;;-0.55;59.27;98589.75;4434880;32;33515;-84
2024/01/14 03:44:41;;;;;;;;;;;;;;;-0.75;59.54;98592.25;4435388;32;34818;-91
2024/01/14 03:47:09;;;;;;;;;;;;;;;-0.71;59.53;98590.72;4424257;32;34326;-88
2024/01/14 03:49:36;;;;;;;;;;;;;;;-1.10;60.97;98593.09;4423491;32;35293;-88
2024/01/14 03:52:03;;;;;;;;;;;;;;;-0.93;60.95;98587.94;4435213;32;33078;-89
2024/01/14 03:54:30;;;;;;;;;;;;;;;-0.67;60.27;98594.28;4420944;32;35168;-91
2024/01/14 03:56:58;;;;;;;;;;;;;;;-1.37;61.73;98596.78;4436140;32;33978;-91
2024/01/14 03:59:25;;;;;;;;;;;;;;;-0.71;60.44;98590.72;4436435;32;34538;-90
2024/01/14 04:01:52;;;;;;;;;;;;;;;-1.08;61.42;98596.56;4435785;32;32928;-84
2024/01/14 04:04:20;;;;;;;;;;;;;;;-1.51;62.81;98599.50;4422743;32;33754;-90
2024/01/14 04:06:47;;;;;;;;;;;;;;;-2.11;65.55;98595.53;4437181;32;34111;-91
2024/01/14 04:09:15;;;;;;;;;;;;;;;-1.15;62.79;98583.47;4436679;32;34066;-85
2024/01/14 04:11:43;;;;;;;;;;;;;;;-0.86;61.88;98582.34;4436684;32;33499;-90
2024/01/14 04:14:10;;;;;;;;;;;;;;;-0.73;61.34;98582.13;4436915;32;32364;-90
2024/01/14 04:16:38;;;;;;;;;;;;;;;-0.67;61.09;98584.97;4436597;32;33348;-90
2024/01/14 04:19:05;;;;;;;;;;;;;;;-0.75;61.46;98576.09;4422514;32;35467;-86
2024/01/14 04:21:33;;;;;;;;;;;;;;;-0.59;61.02;98573.47;4437289;32;34002;-87
2024/01/14 04:24:02;;;;;;;;;;;;;;;-1.26;62.78;98570.22;4423441;32;33952;-88
2024/01/14 04:26:30;;;;;;;;;;;;;;;-0.92;62.22;98576.94;4422936;32;32644;-85
2024/01/14 04:28:57;;;;;;;;;;;;;;;-1.07;62.63;98583.03;4422296;32;35275;-88
2024/01/14 04:31:24;;;;;;;;;;;;;;;-0.53;61.16;98590.69;4437276;32;33528;-89
2024/01/14 04:33:52;;;;;;;;;;;;;;;-1.38;63.75;98584.88;4423170;32;33664;-88
2024/01/14 04:36:19;;;;;;;;;;;;;;;-1.18;63.65;98586.72;4431998;32;34849;-90
2024/01/14 04:38:46;;;;;;;;;;;;;;;-1.37;64.84;98581.53;4423519;32;34428;-90
2024/01/14 04:41:14;;;;;;;;;;;;;;;-1.29;64.33;98583.69;4422251;32;32985;-89
2024/01/14 04:43:41;;;;;;;;;;;;;;;-1.23;64.63;98590.72;4421172;32;34131;-90
2024/01/14 04:46:10;;;;;;;;;;;;;;;-0.79;63.41;98576.75;4422130;32;33855;-89
2024/01/14 04:48:38;;;;;;;;;;;;;;;-1.32;64.74;98575.03;4421816;32;35242;-89
2024/01/14 04:51:07;;;;;;;;;;;;;;;-1.37;64.90;98581.53;4422179;32;34352;-88
2024/01/14 04:53:36;;;;;;;;;;;;;;;-1.62;66.35;98577.75;4422041;32;35416;-89
2024/01/14 04:56:05;;;;;;;;;;;;;;;-1.14;64.78;98580.12;4422229;32;34017;-90
2024/01/14 04:58:32;;;;;;;;;;;;;;;-1.24;65.33;98573.72;4420922;32;34042;-87
2024/01/14 05:00:59;;;;;;;;;;;;;;;-0.87;64.46;98575.50;4419848;32;32910;-89
2024/01/14 05:03:27;;;;;;;;;;;;;;;-1.27;65.21;98555.75;4418089;32;35109;-89
2024/01/14 05:05:55;;;;;;;;;;;;;;;-1.12;64.57;98564.12;4420476;32;35204;-88
2024/01/14 05:08:22;;;;;;;;;;;;;;;-1.04;64.55;98562.84;4406913;32;33153;-91
2024/01/14 05:10:50;;;;;;;;;;;;;;;-0.80;64.01;98559.72;4421580;32;33386;-86
2024/01/14 05:13:17;;;;;;;;;;;;;;;-0.35;62.60;98560.13;4420632;32;34884;-85
2024/01/14 05:15:44;;;;;;;;;;;;;;;-0.48;62.17;98550.19;4420928;32;34056;-85
2024/01/14 05:18:13;;;;;;;;;;;;;;;-0.07;61.07;98552.94;4421545;32;34980;-86
2024/01/14 05:20:40;;;;;;;;;;;;;;;-0.14;60.70;98567.87;4421026;32;33818;-84
2024/01/14 05:23:08;;;;;;;;;;;;;;;-0.43;60.92;98574.19;4421195;32;33828;-85
2024/01/14 05:25:35;;;;;;;;;;;;;;;-0.13;60.25;98583.22;4421378;32;35235;-89
2024/01/14 05:28:03;;;;;;;;;;;;;;;-0.10;60.03;98564.66;4420409;32;33396;-91
2024/01/14 05:30:30;;;;;;;;;;;;;;;0.11;58.95;98574.91;4420793;32;34275;-91
2024/01/14 05:32:58;;;;;;;;;;;;;;;-0.08;59.35;98568.13;4420593;32;32342;-90
2024/01/14 05:35:25;;;;;;;;;;;;;;;0.15;58.71;98572.59;4421316;32;33979;-90
2024/01/14 05:37:52;;;;;;;;;;;;;;;-0.29;59.38;98573.16;4421545;32;34607;-87
2024/01/14 05:40:20;;;;;;;;;;;;;;;-0.03;58.54;98561.59;4421168;32;33692;-90
2024/01/14 05:42:47;;;;;;;;;;;;;;;-0.01;58.25;98552.31;4420325;32;34979;-87
2024/01/14 05:45:14;;;;;;;;;;;;;;;0.12;57.87;98556.28;4400713;32;784682;-89
2024/01/14 05:47:42;;;;;;;;;;;;;;;0.14;57.62;98562.31;4436645;32;34009;-92
2024/01/14 05:50:09;;;;;;;;;;;;;;;0.11;57.73;98554.53;4436697;32;34215;-92
2024/01/14 05:52:37;;;;;;;;;;;;;;;-0.30;58.58;98561.22;4435462;32;35025;-91
2024/01/14 05:55:05;;;;;;;;;;;;;;;-0.40;59.14;98565.00;4436030;32;34991;-87
2024/01/14 05:57:32;;;;;;;;;;;;;;;-0.30;59.03;98566.31;4437109;32;35185;-89
2024/01/14 05:59:59;;;;;;;;;;;;;;;-0.48;59.24;98551.06;4436399;32;34156;-85
2024/01/14 06:02:27;;;;;;;;;;;;;;;-0.28;58.96;98560.47;4436405;32;34910;-86
2024/01/14 06:04:55;;;;;;;;;;;;;;;-0.15;58.11;98559.38;4435809;32;33831;-84
2024/01/14 06:07:22;;;;;;;;;;;;;;;-0.02;57.65;98554.00;4436022;32;34791;-88
2024/01/14 06:09:49;;;;;;;;;;;;;;;-0.12;57.71;98567.13;4435938;32;33110;-91
2024/01/14 06:12:17;;;;;;;;;;;;;;;-0.07;57.54;98567.34;4436802;32;34040;-90
2024/01/14 06:14:44;;;;;;;;;;;;;;;-0.06;57.30;98574.19;4436220;32;34411;-91
2024/01/14 06:17:11;;;;;;;;;;;;;;;-0.12;57.26;98571.34;4434733;32;34289;-91
2024/01/14 06:19:40;;;;;;;;;;;;;;;-0.09;57.06;98572.34;4435386;32;33983;-91
2024/01/14 06:22:08;;;;;;;;;;;;;;;-0.51;57.90;98574.69;4435643;32;34694;-88
2024/01/14 06:24:35;;;;;;;;;;;;;;;-0.36;57.76;98583.84;4435613;32;34022;-85
2024/01/14 06:27:03;;;;;;;;;;;;;;;-0.47;58.17;98579.94;4436169;32;34275;-85
2024/01/14 06:29:30;;;;;;;;;;;;;;;-0.44;58.20;98572.44;4436287;32;33560;-90
2024/01/14 06:32:00;;;;;;;;;;;;;;;-0.25;57.75;98569.94;4435890;32;34137;-90
2024/01/14 06:34:28;;;;;;;;;;;;;;;-0.44;57.96;98573.31;4436672;32;34196;-89
2024/01/14 06:36:55;;;;;;;;;;;;;;;-0.43;58.04;98569.09;4436439;32;34785;-89
2024/01/14 06:39:22;;;;;;;;;;;;;;;-0.39;57.97;98560.78;4437082;32;32971;-90
2024/01/14 06:41:51;;;;;;;;;;;;;;;-0.35;57.87;98572.84;4432785;32;34008;-90
2024/01/14 06:44:18;;;;;;;;;;;;;;;-0.47;58.00;98577.38;4421021;32;34509;-90
2024/01/14 06:46:45;;;;;;;;;;;;;;;-0.48;58.24;98584.16;4420913;32;34443;-89
2024/01/14 06:49:13;;;;;;;;;;;;;;;-0.38;57.94;98575.25;4420992;32;33189;-90
2024/01/14 06:51:45;;;;;;;;;;;;;;;-0.39;57.89;98566.75;4421088;32;33892;-90
2024/01/14 06:54:13;;;;;;;;;;;;;;;-0.47;57.90;98572.28;4419820;32;34401;-90
2024/01/14 06:56:44;;;;;;;;;;;;;;;-0.29;57.60;98568.91;4421282;32;34387;-91
2024/01/14 06:59:12;;;;;;;;;;;;;;;-0.28;57.60;98564.69;4420903;32;33060;-90
2024/01/14 07:01:39;;;;;;;;;;;;;;;-0.48;58.09;98566.34;4420004;32;35211;-90
2024/01/14 07:04:07;;;;;;;;;;;;;;;-0.50;58.39;98570.47;4420338;32;34482;-84
2024/01/14 07:06:34;;;;;;;;;;;;;;;-0.51;58.62;98577.22;4420378;32;33975;-88
2024/01/14 07:09:02;;;;;;;;;;;;;;;-0.32;58.35;98578.09;4420860;32;33502;-85
2024/01/14 07:11:31;;;;;;;;;;;;;;;-0.48;58.84;98585.84;4419971;32;33789;-86
2024/01/14 07:13:58;;;;;;;;;;;;;;;-0.28;58.54;98588.47;4418426;32;34243;-89
2024/01/14 07:16:25;;;;;;;;;;;;;;;-0.26;58.45;98581.81;4406415;32;35151;-91
2024/01/14 07:18:53;;;;;;;;;;;;;;;-0.48;59.03;98575.66;4419906;32;33635;-88
2024/01/14 07:21:23;;;;;;;;;;;;;;;-0.38;59.08;98565.06;4420966;32;34119;-90
2024/01/14 07:23:50;;;;;;;;;;;;;;;-0.32;59.34;98561.13;4419921;32;34181;-84
2024/01/14 07:26:18;;;;;;;;;;;;;;;-0.36;59.50;98573.66;4420414;32;34493;-89
2024/01/14 07:28:52;;;;;;;;;;;;;;;-0.30;59.68;98581.59;4414806;32;33211;-89
2024/01/14 07:31:21;;;;;;;;;;;;;;;-0.37;60.14;98585.53;4417253;32;34827;-89
2024/01/14 07:33:52;;;;;;;;;;;;;;;-0.20;59.91;98590.50;4418913;32;34803;-84
2024/01/14 07:36:21;;;;;;;;;;;;;;;-0.21;60.01;98582.00;4420480;32;34567;-84
2024/01/14 07:38:51;;;;;;;;;;;;;;;-0.12;59.83;98571.34;4419728;32;33425;-87
2024/01/14 07:41:19;;;;;;;;;;;;;;;-0.22;60.28;98577.72;4418506;32;33960;-82
2024/01/14 07:43:46;;;;;;;;;;;;;;;-0.27;60.56;98576.63;4418857;32;35163;-83
2024/01/14 07:46:14;;;;;;;;;;;;;;;0.06;60.13;98572.16;4430122;32;34387;-84
2024/01/14 07:48:42;;;;;;;;;;;;;;;0.10;59.71;98576.59;4434916;32;33597;-87
2024/01/14 07:51:10;;;;;;;;;;;;;;;0.18;59.60;98582.91;4434433;32;34068;-83
2024/01/14 07:53:37;;;;;;;;;;;;;;;0.26;59.36;98588.34;4435578;32;34362;-90
2024/01/14 07:56:04;;;;;;;;;;;;;;;0.07;60.08;98588.34;4434999;32;35224;-85
2024/01/14 07:58:32;;;;;;;;;;;;;;;0.23;59.56;98578.91;4435461;32;34325;-88
2024/01/14 08:00:59;;;;;;;;;;;;;;;0.19;59.45;98578.66;4434570;32;34121;-88
2024/01/14 08:03:30;;;;;;;;;;;;;;;0.14;59.58;98564.88;4435108;32;34399;-83
2024/01/14 08:05:58;;;;;;;;;;;;;;;0.14;59.74;98580.16;4431303;32;34457;-84
2024/01/14 08:08:26;;;;;;;;;;;;;;;0.06;59.98;98578.94;4420859;32;33261;-86
2024/01/14 08:10:54;;;;;;;;;;;;;;;-0.13;60.84;98592.53;4436014;32;34719;-90
2024/01/14 08:13:21;;;;;;;;;;;;;;;-0.12;60.70;98589.19;4435281;32;33694;-87
2024/01/14 08:15:48;;;;;;;;;;;;;;;0.17;59.90;98583.72;4420503;32;33184;-88
2024/01/14 08:18:29;;;;;;;;;;;;;;;-0.09;60.33;98590.19;4434671;32;33527;-88
2024/01/14 08:20:58;;;;;;;;;;;;;;;0.08;60.39;98590.09;4434961;32;33775;-84
2024/01/14 08:23:26;;;;;;;;;;;;;;;0.03;60.43;98583.91;4434210;32;35095;-88
2024/01/14 08:25:56;;;;;;;;;;;;;;;0.10;60.22;98575.72;4422455;32;34526;-82
2024/01/14 08:28:24;;;;;;;;;;;;;;;0.02;60.74;98580.50;4432465;32;34356;-88
2024/01/14 08:30:51;;;;;;;;;;;;;;;-0.10;61.01;98578.25;4430986;32;33993;-83
2024/01/14 08:33:19;;;;;;;;;;;;;;;0.09;60.75;98584.19;4431881;32;34767;-88
2024/01/14 08:35:46;;;;;;;;;;;;;;;-0.60;62.78;98589.53;4430771;32;35318;-90
2024/01/14 08:38:14;;;;;;;;;;;;;;;-0.57;63.57;98591.34;4419039;32;33233;-85
2024/01/14 08:40:41;;;;;;;;;;;;;;;-0.17;62.50;98591.53;4435373;32;33478;-82
2024/01/14 08:43:08;;;;;;;;;;;;;;;-0.48;62.86;98593.47;4435623;32;34042;-83
2024/01/14 08:45:36;;;;;;;;;;;;;;;-0.25;62.73;98595.41;4422040;32;35064;-88
2024/01/14 08:48:05;;;;;;;;;;;;;;;-0.41;63.56;98592.97;4420789;32;34564;-87
2024/01/14 08:50:32;;;;;;;;;;;;;;;-0.19;63.19;98595.69;4433461;32;34110;-84
2024/01/14 08:52:59;;;;;;;;;;;;;;;-0.48;64.09;98594.34;4425861;32;34382;-82
2024/01/14 08:55:28;;;;;;;;;;;;;;;-0.74;65.38;98596.53;4422062;32;34179;-82
2024/01/14 08:57:55;;;;;;;;;;;;;;;-0.74;65.65;98588.88;4421699;32;34501;-83
2024/01/14 09:00:23;;;;;;;;;;;;;;;-0.35;64.51;98593.22;4421840;32;34444;-88
2024/01/14 09:02:50;;;;;;;;;;;;;;;-0.57;65.66;98594.78;4421898;32;35360;-84
2024/01/14 09:05:17;;;;;;;;;;;;;;;-0.34;64.68;98602.59;4420031;32;35161;-82
2024/01/14 09:07:45;;;;;;;;;;;;;;;-0.20;64.47;98605.78;4422022;32;33637;-88
2024/01/14 09:10:12;;;;;;;;;;;;;;;0.32;62.68;98609.00;4421741;32;34146;-86
2024/01/14 09:12:40;;;;;;;;;;;;;;;-0.15;64.22;98607.78;4421518;32;35240;-89
2024/01/14 09:15:07;;;;;;;;;;;;;;;0.09;63.57;98605.44;4422234;32;34377;-87
2024/01/14 09:17:35;;;;;;;;;;;;;;;0.26;62.94;98595.97;4421836;32;34317;-90
2024/01/14 09:20:04;;;;;;;;;;;;;;;0.07;63.55;98593.44;4416667;32;33629;-88
2024/01/14 09:22:32;;;;;;;;;;;;;;;0.20;63.45;98595.72;4421257;32;35080;-89
2024/01/14 09:24:59;;;;;;;;;;;;;;;0.19;63.62;98591.41;4420361;32;34215;-85
2024/01/14 09:27:30;;;;;;;;;;;;;;;0.32;63.33;98590.28;4421246;32;33107;-87
2024/01/14 09:29:58;;;;;;;;;;;;;;;0.57;62.64;98587.09;4421476;32;34203;-87
2024/01/14 09:32:25;;;;;;;;;;;;;;;0.08;64.65;98595.19;4421203;32;35291;-88
2024/01/14 09:34:53;;;;;;;;;;;;;;;0.16;64.63;98593.84;4429125;32;35361;-82
2024/01/14 09:37:20;;;;;;;;;;;;;;;0.52;63.71;98591.16;4421614;32;33343;-83
2024/01/14 09:39:47;;;;;;;;;;;;;;;0.55;63.33;98587.06;4421810;32;33857;-86
2024/01/14 09:42:17;;;;;;;;;;;;;;;0.48;63.89;98585.91;4421453;32;35198;-83
2024/01/14 09:44:45;;;;;;;;;;;;;;;0.62;63.71;98583.09;4421492;32;33883;-84
2024/01/14 09:47:14;;;;;;;;;;;;;;;0.38;63.86;98585.44;4423162;32;33006;-82
2024/01/14 09:49:41;;;;;;;;;;;;;;;0.34;64.41;98571.72;4436713;32;33998;-86
2024/01/14 09:52:09;;;;;;;;;;;;;;;0.46;64.11;98559.50;4418129;32;33550;-87
2024/01/14 09:54:36;;;;;;;;;;;;;;;0.79;63.38;98559.13;4420540;32;34531;-85
2024/01/14 09:57:05;;;;;;;;;;;;;;;0.65;63.53;98550.06;4436043;32;33993;-82
2024/01/14 09:59:33;;;;;;;;;;;;;;;0.73;63.32;98543.59;4436090;32;34506;-83
2024/01/14 10:02:01;;;;;;;;;;;;;;;0.71;63.51;98556.28;4425530;32;35202;-84
2024/01/14 10:04:29;;;;;;;;;;;;;;;0.79;63.46;98542.97;4434947;32;34809;-86
2024/01/14 10:06:57;;;;;;;;;;;;;;;0.89;63.19;98540.84;4436730;32;33068;-87
2024/01/14 10:09:25;;;;;;;;;;;;;;;0.75;63.52;98551.31;4447907;32;33996;-87
2024/01/14 10:11:54;;;;;;;;;;;;;;;0.87;62.95;98552.69;4420920;32;34105;-90
2024/01/14 10:14:25;;;;;;;;;;;;;;;1.21;62.28;98541.25;4421463;32;34573;-85
2024/01/14 10:17:00;;;;;;;;;;;;;;;1.08;62.46;98545.03;4424459;32;33513;-87
2024/01/14 10:19:28;;;;;;;;;;;;;;;0.92;62.82;98537.56;4436159;32;34036;-82
2024/01/14 10:21:56;;;;;;;;;;;;;;;1.34;61.59;98540.94;4431340;32;34429;-83
2024/01/14 10:24:52;;;;;;;;;;;;;;;1.46;61.05;98536.31;4421120;32;33774;-87
2024/01/14 10:27:23;;;;;;;;;;;;;;;1.59;60.88;98542.78;4432743;32;32946;-87
2024/01/14 10:30:12;;;;;;;;;;;;;;;1.11;61.29;98534.94;4414763;32;33944;-83
2024/01/14 10:32:42;;;;;;;;;;;;;;;1.29;61.08;98537.34;4429119;32;33908;-85
2024/01/14 10:35:29;;;;;;;;;;;;;;;1.49;60.46;98527.03;4435151;32;34085;-86
2024/01/14 10:37:58;;;;;;;;;;;;;;;1.36;60.26;98529.09;4425860;32;34231;-85
2024/01/14 10:40:26;;;;;;;;;;;;;;;1.49;59.52;98521.91;4435048;32;34461;-86
2024/01/14 10:42:54;;;;;;;;;;;;;;;1.73;59.36;98516.84;4432226;32;34733;-88
2024/01/14 10:45:22;;;;;;;;;;;;;;;2.04;58.51;98516.28;4431301;32;35162;-83
2024/01/14 10:47:51;;;;;;;;;;;;;;;2.03;58.11;98515.41;4412017;32;33312;-87
2024/01/14 10:50:18;;;;;;;;;;;;;;;2.36;57.68;98512.31;4413239;32;34115;-85
2024/01/14 10:52:49;;;;;;;;;;;;;;;1.86;58.78;98512.25;4411244;32;35099;-85
2024/01/14 10:55:22;;;;;;;;;;;;;;;1.78;58.88;98511.12;4419697;32;34302;-87
2024/01/14 10:57:50;;;;;;;;;;;;;;;2.25;58.05;98495.72;4423898;32;34339;-88
2024/01/14 11:00:18;;;;;;;;;;;;;;;1.99;58.66;98503.34;4411055;32;35413;-89
2024/01/14 11:02:45;;;;;;;;;;;;;;;2.03;58.12;98500.06;4411957;32;34351;-86
2024/01/14 11:05:13;;;;;;;;;;;;;;;1.92;58.40;98497.13;4416370;32;34094;-84
2024/01/14 11:07:41;;;;;;;;;;;;;;;2.04;58.10;98496.69;4419249;32;33426;-89
2024/01/14 11:10:10;;;;;;;;;;;;;;;2.02;58.26;98487.25;4422272;32;34254;-88
2024/01/14 11:12:48;;;;;;;;;;;;;;;1.77;59.15;98483.78;4417197;32;33840;-87
2024/01/14 11:15:27;;;;;;;;;;;;;;;2.16;58.08;98493.72;4423129;32;34777;-86
2024/01/14 11:17:57;;;;;;;;;;;;;;;1.99;58.44;98477.78;4431777;32;33053;-88
2024/01/14 11:20:28;;;;;;;;;;;;;;;1.71;58.64;98488.69;4414386;32;33782;-86
2024/01/14 11:23:02;;;;;;;;;;;;;;;1.45;59.66;98488.59;4410995;32;33945;-87
2024/01/14 11:25:30;;;;;;;;;;;;;;;1.99;58.51;98476.91;4407105;32;35078;-85
2024/01/14 11:28:02;;;;;;;;;;;;;;;2.05;58.24;98477.13;4409834;32;32844;-85
2024/01/14 11:30:49;;;;;;;;;;;;;;;1.65;59.31;98478.25;4413304;32;34106;-84
2024/01/14 11:33:29;;;;;;;;;;;;;;;2.28;58.09;98473.69;4419099;32;34512;-84
2024/01/14 11:36:02;;;;;;;;;;;;;;;1.85;58.95;98473.84;4419013;32;34133;-83
2024/01/14 11:38:45;;;;;;;;;;;;;;;2.12;58.57;98468.84;4417405;32;32954;-85
2024/01/14 11:41:28;;;;;;;;;;;;;;;2.49;57.60;98464.97;4420780;32;33553;-85
2024/01/14 11:43:56;;;;;;;;;;;;;;;2.57;57.21;98463.53;4405261;32;34223;-85
2024/01/14 11:46:39;;;;;;;;;;;;;;;2.53;57.18;98466.81;4424526;32;33869;-86
2024/01/14 11:49:08;;;;;;;;;;;;;;;2.22;58.22;98458.09;4422538;32;33452;-84
2024/01/14 11:52:00;;;;;;;;;;;;;;;2.21;57.90;98458.94;4420327;32;34375;-84
2024/01/14 11:54:27;;;;;;;;;;;;;;;2.14;57.96;98446.75;4432608;32;34137;-83
2024/01/14 11:56:55;;;;;;;;;;;;;;;2.06;58.38;98441.38;4435807;32;34325;-84
2024/01/14 11:59:22;;;;;;;;;;;;;;;2.16;57.97;98440.03;4436249;32;33181;-83
2024/01/14 12:01:52;;;;;;;;;;;;;;;2.55;56.86;98444.72;4435616;32;34888;-87
2024/01/14 12:04:23;;;;;;;;;;;;;;;2.71;55.89;98438.41;4435665;32;34486;-87
2024/01/14 12:06:50;;;;;;;;;;;;;;;2.64;55.91;98434.78;4435555;32;33842;-84
2024/01/14 12:09:18;;;;;;;;;;;;;;;2.49;56.51;98436.84;4435158;32;33201;-84
2024/01/14 12:11:46;;;;;;;;;;;;;;;2.48;56.39;98427.44;4435074;32;33618;-85
2024/01/14 12:14:13;;;;;;;;;;;;;;;2.46;56.39;98429.91;4434361;32;35030;-84
2024/01/14 12:16:42;;;;;;;;;;;;;;;2.77;55.39;98416.44;4433939;32;33908;-87
2024/01/14 12:19:21;;;;;;;;;;;;;;;2.61;55.41;98416.75;4436899;32;33540;-87
2024/01/14 12:21:52;;;;;;;;;;;;;;;2.54;55.62;98414.81;4425062;32;34154;-88
2024/01/14 12:24:20;;;;;;;;;;;;;;;2.60;55.76;98413.31;4433125;32;34771;-84
2024/01/14 12:26:47;;;;;;;;;;;;;;;2.41;56.53;98411.88;4422174;32;34048;-85
2024/01/14 12:29:15;;;;;;;;;;;;;;;2.61;56.07;98411.62;4427666;32;33279;-84
2024/01/14 12:31:44;;;;;;;;;;;;;;;3.04;54.70;98415.56;4432808;32;33919;-86
2024/01/14 12:34:23;;;;;;;;;;;;;;;2.78;55.34;98410.50;4421697;32;34087;-87
2024/01/14 12:36:51;;;;;;;;;;;;;;;3.03;54.75;98404.44;4437027;32;34227;-85
2024/01/14 12:39:23;;;;;;;;;;;;;;;3.30;54.19;98396.69;4432819;32;33469;-87
2024/01/14 12:41:51;;;;;;;;;;;;;;;2.99;55.14;98397.47;4431343;32;33691;-89
2024/01/14 12:44:22;;;;;;;;;;;;;;;3.76;53.14;98385.16;4435670;32;34376;-87
2024/01/14 12:46:53;;;;;;;;;;;;;;;3.11;54.70;98390.16;4433376;32;34132;-89
2024/01/14 12:49:25;;;;;;;;;;;;;;;3.55;53.73;98382.00;4431855;32;33115;-87
2024/01/14 12:52:03;;;;;;;;;;;;;;;3.97;52.38;98382.28;4410325;32;33164;-86
2024/01/14 12:54:46;;;;;;;;;;;;;;;3.41;53.78;98384.19;4419818;32;34242;-86
2024/01/14 12:57:14;;;;;;;;;;;;;;;3.40;54.31;98380.75;4423275;32;34705;-89